AFR1180 LFPG-EGLL
Flight info
| Callsign | AFR1180 |
|---|---|
| Flight time | N/A |
| Altitude | 24000 |
| Route | OPALE DCT KESAX DCT DIMAL DCT ALESO |
| Aircraft | A320/M-SDE3FGHIRWY/LB1 |
Departure
| Time | 2026-05-07 18:18 |
|---|---|
| Airport | Charles de Gaulle International Airport (LFPG) |
Arrival
| Time | N/A |
|---|---|
| Airport | London Heathrow Airport (EGLL) |
| Time | Latitude | Longitude | Altitude | Speed | Heading |
|---|---|---|---|---|---|
| 2026-05-07 17:52 | 49.00262 | 2.58078 | 361 ft | 0 kts | 211° |
| 2026-05-07 18:06 | 49.00273 | 2.58089 | 356 ft | 2 kts | 211° |
| 2026-05-07 18:06 | 49.00288 | 2.58102 | 362 ft | 2 kts | 211° |
| 2026-05-07 18:06 | 49.00301 | 2.58117 | 364 ft | 2 kts | 230° |
| 2026-05-07 18:07 | 49.00315 | 2.58130 | 362 ft | 2 kts | 158° |
| 2026-05-07 18:07 | 49.00324 | 2.58122 | 360 ft | 0 kts | 118° |
| 2026-05-07 18:08 | 49.00324 | 2.58123 | 360 ft | 0 kts | 118° |
| 2026-05-07 18:08 | 49.00324 | 2.58124 | 354 ft | 0 kts | 113° |
| 2026-05-07 18:08 | 49.00326 | 2.58180 | 354 ft | 14 kts | 86° |
| 2026-05-07 18:09 | 49.00285 | 2.58292 | 357 ft | 14 kts | 170° |
| 2026-05-07 18:09 | 49.00179 | 2.58306 | 354 ft | 17 kts | 175° |
| 2026-05-07 18:09 | 49.00044 | 2.58327 | 354 ft | 20 kts | 159° |
| 2026-05-07 18:09 | 49.00021 | 2.58501 | 354 ft | 18 kts | 86° |
| 2026-05-07 18:10 | 49.00035 | 2.58705 | 358 ft | 22 kts | 67° |
| 2026-05-07 18:10 | 49.00172 | 2.58758 | 354 ft | 22 kts | 1° |
| 2026-05-07 18:10 | 49.00328 | 2.58742 | 354 ft | 23 kts | 355° |
| 2026-05-07 18:10 | 49.00495 | 2.58723 | 356 ft | 25 kts | 356° |
| 2026-05-07 18:11 | 49.00697 | 2.58699 | 354 ft | 32 kts | 355° |
| 2026-05-07 18:11 | 49.00827 | 2.58664 | 357 ft | 27 kts | 339° |
| 2026-05-07 18:11 | 49.00923 | 2.58388 | 362 ft | 26 kts | 266° |
| 2026-05-07 18:11 | 49.00993 | 2.58230 | 354 ft | 20 kts | 349° |
| 2026-05-07 18:12 | 49.01177 | 2.58208 | 357 ft | 31 kts | 355° |
| 2026-05-07 18:12 | 49.01392 | 2.58177 | 357 ft | 31 kts | 355° |
| 2026-05-07 18:12 | 49.01610 | 2.58148 | 358 ft | 31 kts | 356° |
| 2026-05-07 18:12 | 49.01828 | 2.58123 | 358 ft | 31 kts | 355° |
| 2026-05-07 18:13 | 49.02021 | 2.57985 | 361 ft | 31 kts | 313° |
| 2026-05-07 18:13 | 49.02089 | 2.57674 | 354 ft | 32 kts | 267° |
| 2026-05-07 18:13 | 49.02071 | 2.57332 | 354 ft | 33 kts | 265° |
| 2026-05-07 18:13 | 49.02052 | 2.56984 | 354 ft | 34 kts | 265° |
| 2026-05-07 18:14 | 49.02033 | 2.56624 | 358 ft | 34 kts | 265° |
| 2026-05-07 18:14 | 49.02062 | 2.56306 | 359 ft | 29 kts | 309° |
| 2026-05-07 18:14 | 49.02092 | 2.56010 | 354 ft | 30 kts | 265° |
| 2026-05-07 18:14 | 49.02072 | 2.55691 | 354 ft | 31 kts | 266° |
| 2026-05-07 18:15 | 49.02056 | 2.55356 | 354 ft | 36 kts | 265° |
| 2026-05-07 18:15 | 49.02035 | 2.54965 | 354 ft | 37 kts | 265° |
| 2026-05-07 18:15 | 49.02014 | 2.54568 | 357 ft | 37 kts | 265° |
| 2026-05-07 18:15 | 49.01991 | 2.54217 | 357 ft | 32 kts | 250° |
| 2026-05-07 18:16 | 49.01896 | 2.54031 | 354 ft | 18 kts | 261° |
| 2026-05-07 18:16 | 49.01880 | 2.53753 | 354 ft | 35 kts | 265° |
| 2026-05-07 18:16 | 49.01852 | 2.53324 | 355 ft | 44 kts | 264° |
| 2026-05-07 18:16 | 49.01841 | 2.53019 | 354 ft | 43 kts | 266° |
| 2026-05-07 18:17 | 49.01809 | 2.52425 | 354 ft | 31 kts | 266° |
| 2026-05-07 18:17 | 49.01875 | 2.52352 | 354 ft | 17 kts | 357° |
| 2026-05-07 18:17 | 49.01977 | 2.52343 | 354 ft | 25 kts | 356° |
| 2026-05-07 18:17 | 49.02119 | 2.52396 | 358 ft | 13 kts | 61° |
| 2026-05-07 18:18 | 49.02129 | 2.52519 | 356 ft | 19 kts | 85° |
| 2026-05-07 18:18 | 49.02168 | 2.53176 | 355 ft | 105 kts | 85° |
| 2026-05-07 18:18 | 49.02254 | 2.54665 | 376 ft | 170 kts | 84° |
| 2026-05-07 18:18 | 49.02335 | 2.56511 | 1199 ft | 174 kts | 86° |
| 2026-05-07 18:19 | 49.02409 | 2.58356 | 2233 ft | 174 kts | 85° |
| 2026-05-07 18:19 | 49.02501 | 2.60223 | 2767 ft | 188 kts | 84° |
| 2026-05-07 18:19 | 49.02621 | 2.62332 | 3167 ft | 212 kts | 85° |
| 2026-05-07 18:19 | 49.02755 | 2.64707 | 3563 ft | 236 kts | 84° |
| 2026-05-07 18:20 | 49.02900 | 2.67321 | 4054 ft | 256 kts | 85° |
| 2026-05-07 18:20 | 49.03048 | 2.70043 | 4862 ft | 264 kts | 85° |
| 2026-05-07 18:20 | 49.03275 | 2.72849 | 5693 ft | 270 kts | 73° |
| 2026-05-07 18:20 | 49.04279 | 2.75268 | 6474 ft | 277 kts | 39° |
| 2026-05-07 18:21 | 49.06035 | 2.76458 | 7248 ft | 281 kts | 5° |
| 2026-05-07 18:21 | 49.07946 | 2.76010 | 8055 ft | 282 kts | 335° |
| 2026-05-07 18:21 | 49.09658 | 2.74549 | 8904 ft | 285 kts | 324° |
| 2026-05-07 18:21 | 49.11288 | 2.72804 | 9752 ft | 289 kts | 323° |
| 2026-05-07 18:22 | 49.12949 | 2.70994 | 10435 ft | 298 kts | 323° |
| 2026-05-07 18:22 | 49.14100 | 2.69733 | 10612 ft | 314 kts | 323° |
| 2026-05-07 18:22 | 49.16717 | 2.67279 | 10901 ft | 345 kts | 331° |
| 2026-05-07 18:22 | 49.18887 | 2.65655 | 11445 ft | 354 kts | 334° |
| 2026-05-07 18:23 | 49.21159 | 2.64096 | 12157 ft | 358 kts | 334° |
| 2026-05-07 18:23 | 49.23377 | 2.62336 | 12886 ft | 360 kts | 326° |
| 2026-05-07 18:23 | 49.25487 | 2.60198 | 13623 ft | 363 kts | 324° |
| 2026-05-07 18:23 | 49.27549 | 2.58006 | 14304 ft | 366 kts | 322° |
| 2026-05-07 18:24 | 49.29631 | 2.55725 | 14918 ft | 369 kts | 322° |
| 2026-05-07 18:24 | 49.31719 | 2.53407 | 15554 ft | 372 kts | 322° |
| 2026-05-07 18:24 | 49.33821 | 2.51068 | 16180 ft | 375 kts | 322° |
| 2026-05-07 18:24 | 49.35921 | 2.48740 | 16801 ft | 378 kts | 322° |
| 2026-05-07 18:25 | 49.38030 | 2.46410 | 17406 ft | 381 kts | 322° |
| 2026-05-07 18:25 | 49.40193 | 2.44025 | 18006 ft | 384 kts | 322° |
| 2026-05-07 18:25 | 49.42368 | 2.41627 | 18566 ft | 386 kts | 322° |
| 2026-05-07 18:25 | 49.44561 | 2.39210 | 19070 ft | 389 kts | 322° |
| 2026-05-07 18:26 | 49.46765 | 2.36781 | 19575 ft | 392 kts | 322° |
| 2026-05-07 18:26 | 49.48989 | 2.34326 | 20080 ft | 395 kts | 322° |
| 2026-05-07 18:26 | 49.51226 | 2.31852 | 20577 ft | 398 kts | 322° |
| 2026-05-07 18:26 | 49.53480 | 2.29350 | 21053 ft | 401 kts | 322° |
| 2026-05-07 18:27 | 49.55747 | 2.26834 | 21526 ft | 404 kts | 322° |
| 2026-05-07 18:27 | 49.58038 | 2.24293 | 21998 ft | 406 kts | 322° |
| 2026-05-07 18:27 | 49.60342 | 2.21741 | 22464 ft | 409 kts | 322° |
| 2026-05-07 18:27 | 49.62662 | 2.19165 | 22922 ft | 412 kts | 322° |
| 2026-05-07 18:28 | 49.64991 | 2.16570 | 23375 ft | 415 kts | 322° |
| 2026-05-07 18:28 | 49.67338 | 2.13951 | 23787 ft | 417 kts | 322° |
| 2026-05-07 18:28 | 49.69697 | 2.11322 | 24003 ft | 419 kts | 322° |
| 2026-05-07 18:28 | 49.72077 | 2.08662 | 24047 ft | 427 kts | 322° |
| 2026-05-07 18:29 | 49.74491 | 2.05954 | 24057 ft | 430 kts | 322° |
| 2026-05-07 18:29 | 49.76915 | 2.03229 | 24052 ft | 431 kts | 322° |
| 2026-05-07 18:29 | 49.79347 | 2.00494 | 24055 ft | 431 kts | 322° |
| 2026-05-07 18:29 | 49.81773 | 1.97763 | 24057 ft | 431 kts | 322° |
| 2026-05-07 18:30 | 49.84199 | 1.95024 | 24049 ft | 431 kts | 321° |
| 2026-05-07 18:30 | 49.86620 | 1.92286 | 24055 ft | 431 kts | 321° |
| 2026-05-07 18:30 | 49.89047 | 1.89550 | 24055 ft | 431 kts | 322° |
| 2026-05-07 18:30 | 49.91463 | 1.86794 | 24055 ft | 431 kts | 321° |
| 2026-05-07 18:31 | 49.93838 | 1.83953 | 24058 ft | 431 kts | 319° |
| 2026-05-07 18:31 | 49.96180 | 1.81047 | 24065 ft | 431 kts | 319° |
| 2026-05-07 18:31 | 49.98505 | 1.78118 | 24065 ft | 431 kts | 319° |
| 2026-05-07 18:31 | 50.00833 | 1.75181 | 24062 ft | 431 kts | 319° |
| 2026-05-07 18:32 | 50.03167 | 1.72251 | 24060 ft | 431 kts | 319° |
| 2026-05-07 18:32 | 50.05508 | 1.69340 | 24059 ft | 431 kts | 320° |
| 2026-05-07 18:32 | 50.08018 | 1.66774 | 24057 ft | 434 kts | 329° |
| 2026-05-07 18:32 | 50.10706 | 1.64761 | 24060 ft | 435 kts | 333° |
| 2026-05-07 18:33 | 50.13456 | 1.62786 | 24059 ft | 435 kts | 333° |
| 2026-05-07 18:33 | 50.16201 | 1.60812 | 24053 ft | 435 kts | 333° |
| 2026-05-07 18:33 | 50.18954 | 1.58827 | 24069 ft | 435 kts | 333° |
| 2026-05-07 18:33 | 50.21701 | 1.56836 | 24066 ft | 435 kts | 333° |
| 2026-05-07 18:34 | 50.24444 | 1.54839 | 24065 ft | 435 kts | 333° |
| 2026-05-07 18:34 | 50.27187 | 1.52831 | 24066 ft | 435 kts | 333° |
| 2026-05-07 18:34 | 50.29923 | 1.50826 | 24064 ft | 435 kts | 333° |
| 2026-05-07 18:34 | 50.32664 | 1.48815 | 24067 ft | 435 kts | 333° |
| 2026-05-07 18:35 | 50.35406 | 1.46806 | 24067 ft | 435 kts | 333° |
| 2026-05-07 18:35 | 50.38149 | 1.44800 | 24065 ft | 435 kts | 333° |
| 2026-05-07 18:35 | 50.40887 | 1.42795 | 24067 ft | 435 kts | 333° |
| 2026-05-07 18:35 | 50.43628 | 1.40785 | 24066 ft | 435 kts | 333° |
| 2026-05-07 18:36 | 50.46368 | 1.38759 | 24077 ft | 434 kts | 331° |
| 2026-05-07 18:36 | 50.48934 | 1.36314 | 24070 ft | 431 kts | 321° |
| 2026-05-07 18:36 | 50.51208 | 1.33279 | 24064 ft | 428 kts | 313° |
| 2026-05-07 18:36 | 50.53270 | 1.29814 | 24062 ft | 428 kts | 310° |
| 2026-05-07 18:37 | 50.55265 | 1.26425 | 24060 ft | 428 kts | 310° |
| 2026-05-07 18:37 | 50.57260 | 1.23042 | 24060 ft | 428 kts | 310° |
| 2026-05-07 18:37 | 50.59330 | 1.19602 | 24058 ft | 428 kts | 312° |
| 2026-05-07 18:37 | 50.61425 | 1.16259 | 24056 ft | 429 kts | 313° |
| 2026-05-07 18:38 | 50.63545 | 1.12956 | 24058 ft | 429 kts | 313° |
| 2026-05-07 18:38 | 50.65678 | 1.09667 | 24074 ft | 429 kts | 313° |
| 2026-05-07 18:38 | 50.67805 | 1.06373 | 24075 ft | 429 kts | 313° |
| 2026-05-07 18:38 | 50.69921 | 1.03061 | 24078 ft | 428 kts | 313° |
| 2026-05-07 18:39 | 50.72024 | 0.99736 | 24078 ft | 428 kts | 313° |
| 2026-05-07 18:39 | 50.74123 | 0.96396 | 24078 ft | 428 kts | 312° |
| 2026-05-07 18:39 | 50.76214 | 0.93054 | 24070 ft | 426 kts | 312° |
| 2026-05-07 18:39 | 50.78249 | 0.89802 | 24067 ft | 419 kts | 312° |
| 2026-05-07 18:40 | 50.80291 | 0.86536 | 24067 ft | 417 kts | 312° |
| 2026-05-07 18:40 | 50.82350 | 0.83232 | 24068 ft | 416 kts | 312° |
| 2026-05-07 18:40 | 50.84357 | 0.80010 | 23801 ft | 416 kts | 312° |
| 2026-05-07 18:40 | 50.86433 | 0.76675 | 22501 ft | 426 kts | 312° |
| 2026-05-07 18:41 | 50.88499 | 0.73356 | 21510 ft | 429 kts | 313° |
| 2026-05-07 18:41 | 50.90590 | 0.69996 | 20743 ft | 427 kts | 313° |
| 2026-05-07 18:41 | 50.92665 | 0.66666 | 20038 ft | 423 kts | 313° |
| 2026-05-07 18:41 | 50.94723 | 0.63361 | 19359 ft | 419 kts | 313° |
| 2026-05-07 18:42 | 50.96762 | 0.60080 | 18698 ft | 416 kts | 313° |
| 2026-05-07 18:42 | 50.98777 | 0.56828 | 18135 ft | 410 kts | 313° |
| 2026-05-07 18:42 | 51.00738 | 0.53654 | 17895 ft | 396 kts | 313° |
| 2026-05-07 18:42 | 51.02645 | 0.50560 | 17897 ft | 391 kts | 313° |
| 2026-05-07 18:43 | 51.04552 | 0.47467 | 17879 ft | 390 kts | 312° |
| 2026-05-07 18:43 | 51.06451 | 0.44382 | 17653 ft | 393 kts | 312° |
| 2026-05-07 18:43 | 51.08399 | 0.41265 | 16580 ft | 401 kts | 314° |
| 2026-05-07 18:43 | 51.10383 | 0.38211 | 16294 ft | 390 kts | 314° |
| 2026-05-07 18:44 | 51.12318 | 0.35296 | 16163 ft | 376 kts | 315° |
| 2026-05-07 18:44 | 51.14182 | 0.32502 | 16026 ft | 362 kts | 315° |
| 2026-05-07 18:44 | 51.15983 | 0.29788 | 15904 ft | 350 kts | 314° |
| 2026-05-07 18:44 | 51.17718 | 0.27154 | 15780 ft | 339 kts | 314° |
| 2026-05-07 18:45 | 51.19394 | 0.24591 | 15666 ft | 328 kts | 314° |
| 2026-05-07 18:45 | 51.21019 | 0.22099 | 15481 ft | 321 kts | 314° |
| 2026-05-07 18:45 | 51.22619 | 0.19645 | 15182 ft | 318 kts | 314° |
| 2026-05-07 18:45 | 51.24214 | 0.17197 | 14859 ft | 317 kts | 314° |
| 2026-05-07 18:46 | 51.25791 | 0.14768 | 14532 ft | 315 kts | 313° |
| 2026-05-07 18:46 | 51.27135 | 0.11973 | 13897 ft | 320 kts | 291° |
| 2026-05-07 18:46 | 51.27637 | 0.08616 | 13793 ft | 306 kts | 274° |
| 2026-05-07 18:46 | 51.27800 | 0.05271 | 13576 ft | 300 kts | 274° |
| 2026-05-07 18:47 | 51.28178 | 0.01999 | 13270 ft | 298 kts | 281° |
| 2026-05-07 18:47 | 51.28646 | -0.01215 | 13019 ft | 297 kts | 281° |
| 2026-05-07 18:47 | 51.29116 | -0.04409 | 12693 ft | 294 kts | 281° |
| 2026-05-07 18:47 | 51.29582 | -0.07580 | 12366 ft | 292 kts | 281° |
| 2026-05-07 18:48 | 51.30039 | -0.10711 | 12036 ft | 290 kts | 281° |
| 2026-05-07 18:48 | 51.30494 | -0.13856 | 11712 ft | 288 kts | 281° |
| 2026-05-07 18:48 | 51.30934 | -0.16918 | 11389 ft | 286 kts | 281° |
| 2026-05-07 18:48 | 51.31380 | -0.20043 | 11052 ft | 284 kts | 281° |
| 2026-05-07 18:49 | 51.31815 | -0.23110 | 10725 ft | 282 kts | 281° |
| 2026-05-07 18:49 | 51.32243 | -0.26154 | 10397 ft | 280 kts | 281° |
| 2026-05-07 18:49 | 51.32664 | -0.29180 | 10076 ft | 278 kts | 281° |
| 2026-05-07 18:49 | 51.33077 | -0.32176 | 9725 ft | 276 kts | 281° |
| 2026-05-07 18:50 | 51.33482 | -0.35135 | 9329 ft | 275 kts | 281° |
| 2026-05-07 18:50 | 51.33892 | -0.38161 | 8891 ft | 276 kts | 281° |
| 2026-05-07 18:50 | 51.34300 | -0.41164 | 8467 ft | 275 kts | 281° |
| 2026-05-07 18:50 | 51.34695 | -0.44099 | 8084 ft | 274 kts | 281° |
| 2026-05-07 18:51 | 51.35061 | -0.47093 | 7734 ft | 271 kts | 277° |
| 2026-05-07 18:51 | 51.35305 | -0.50013 | 7603 ft | 259 kts | 276° |
| 2026-05-07 18:51 | 51.35525 | -0.52819 | 7478 ft | 248 kts | 276° |
| 2026-05-07 18:51 | 51.35730 | -0.55508 | 7280 ft | 241 kts | 276° |
| 2026-05-07 18:52 | 51.35925 | -0.58164 | 7080 ft | 239 kts | 276° |
| 2026-05-07 18:52 | 51.36112 | -0.60795 | 6855 ft | 239 kts | 276° |
| 2026-05-07 18:52 | 51.36298 | -0.63434 | 6507 ft | 239 kts | 276° |
| 2026-05-07 18:52 | 51.36477 | -0.66080 | 6144 ft | 239 kts | 276° |
| 2026-05-07 18:53 | 51.36653 | -0.68713 | 5792 ft | 238 kts | 276° |
| 2026-05-07 18:53 | 51.36829 | -0.71347 | 5441 ft | 237 kts | 276° |
| 2026-05-07 18:53 | 51.37003 | -0.73966 | 5129 ft | 237 kts | 276° |
| 2026-05-07 18:53 | 51.37176 | -0.76586 | 4822 ft | 237 kts | 276° |
| 2026-05-07 18:54 | 51.37453 | -0.79177 | 4492 ft | 237 kts | 292° |
| 2026-05-07 18:54 | 51.38413 | -0.81241 | 4208 ft | 233 kts | 325° |
| 2026-05-07 18:54 | 51.39895 | -0.82136 | 4017 ft | 226 kts | 355° |
| 2026-05-07 18:54 | 51.41422 | -0.82252 | 4002 ft | 212 kts | 0° |
| 2026-05-07 18:55 | 51.42837 | -0.82268 | 4025 ft | 196 kts | 1° |
| 2026-05-07 18:55 | 51.44157 | -0.82011 | 3998 ft | 189 kts | 25° |
| 2026-05-07 18:55 | 51.45117 | -0.80648 | 4016 ft | 187 kts | 55° |
| 2026-05-07 18:55 | 51.45811 | -0.78884 | 4009 ft | 186 kts | 60° |
| 2026-05-07 18:56 | 51.46458 | -0.77087 | 4010 ft | 186 kts | 61° |
| 2026-05-07 18:56 | 51.47098 | -0.75291 | 4009 ft | 186 kts | 61° |
| 2026-05-07 18:56 | 51.47593 | -0.73385 | 3990 ft | 185 kts | 81° |
| 2026-05-07 18:56 | 51.47646 | -0.71346 | 3702 ft | 184 kts | 90° |
| 2026-05-07 18:57 | 51.47650 | -0.69296 | 3382 ft | 183 kts | 90° |
| 2026-05-07 18:57 | 51.47658 | -0.67261 | 3077 ft | 182 kts | 90° |
| 2026-05-07 18:57 | 51.47668 | -0.65285 | 2660 ft | 173 kts | 90° |
| 2026-05-07 18:57 | 51.47678 | -0.63343 | 2091 ft | 175 kts | 91° |
| 2026-05-07 18:58 | 51.47686 | -0.61780 | 2013 ft | 178 kts | 90° |
| 2026-05-07 18:58 | 51.47696 | -0.59773 | 2006 ft | 181 kts | 91° |
| 2026-05-07 18:58 | 51.47707 | -0.57507 | 2006 ft | 181 kts | 90° |